Time;durP1;ratioP1;P1;durP2;ratioP2;P2;SDS_P1;SDS_P2;PMS_P1;PMS_P2;Temp;Humidity;BMP_temperature;BMP_pressure;BME280_temperature;BME280_humidity;BME280_pressure;Samples;Min_cycle;Max_cycle;Signal;HPM_P1;HPM_P2
2022/09/24 00:00:51;;;;;;;;;;;;;;;;;;5085032;28;19939;-72
2022/09/24 00:03:18;;;;;;;;;;;;;;;;;;5081576;28;19997;-73
2022/09/24 00:05:45;;;;;;;;;;;;;;;;;;5083287;28;19967;-73
2022/09/24 00:08:12;;;;;;;;;;;;;;;;;;5084543;28;20470;-72
2022/09/24 00:10:39;;;;;;;;;;;;;;;;;;5083568;28;19928;-73
2022/09/24 00:13:07;;;;;;;;;;;;;;;;;;5083573;28;20511;-73
2022/09/24 00:15:34;;;;;;;;;;;;;;;;;;5079386;28;19928;-73
2022/09/24 00:18:01;;;;;;;;;;;;;;;;;;5077451;28;19958;-73
2022/09/24 00:20:28;;;;;;;;;;;;;;;;;;5081357;28;19933;-72
2022/09/24 00:22:55;;;;;;;;;;;;;;;;;;5082904;28;19928;-73
2022/09/24 00:28:07;;;;;;;;;;;;;;;;;;5073428;28;19920;-72
2022/09/24 00:30:34;;;;;;;;;;;;;;;;;;5076448;28;19934;-73
2022/09/24 00:33:01;;;;;;;;;;;;;;;;;;5080504;28;20258;-73
2022/09/24 00:35:30;;;;;;;;;;;;;;;;;;5086263;28;19932;-73
2022/09/24 00:37:57;;;;;;;;;;;;;;;;;;5078980;28;19966;-72
2022/09/24 00:40:24;;;;;;;;;;;;;;;;;;5090570;28;19968;-73
2022/09/24 00:42:51;;;;;;;;;;;;;;;;;;5085507;28;19928;-73
2022/09/24 00:45:18;;;;;;;;;;;;;;;;;;5093683;28;20501;-73
2022/09/24 00:47:45;;;;;;;;;;;;;;;;;;5088226;28;19931;-73
2022/09/24 00:50:12;;;;;;;;;;;;;;;;;;5089592;28;20389;-73
2022/09/24 00:52:39;;;;;;;;;;;;;;;;;;5085784;28;19929;-73
2022/09/24 00:55:06;;;;;;;;;;;;;;;;;;5090325;28;19947;-73
2022/09/24 00:57:34;;;;;;;;;;;;;;;;;;5087313;28;19935;-73
2022/09/24 01:00:01;;;;;;;;;;;;;;;;;;5091274;28;20386;-73
2022/09/24 01:02:29;;;;;;;;;;;;;;;;;;5085680;28;19932;-73
2022/09/24 01:04:56;;;;;;;;;;;;;;;;;;5084147;28;19971;-73
2022/09/24 01:07:24;;;;;;;;;;;;;;;;;;5089392;28;20432;-73
2022/09/24 01:09:51;;;;;;;;;;;;;;;;;;5092374;28;19932;-73
2022/09/24 01:12:18;;;;;;;;;;;;;;;;;;5084747;28;19935;-73
2022/09/24 01:14:45;;;;;;;;;;;;;;;;;;5095742;28;19957;-73
2022/09/24 01:17:12;;;;;;;;;;;;;;;;;;5084833;28;20007;-73
2022/09/24 01:19:39;;;;;;;;;;;;;;;;;;5082625;28;20480;-72
2022/09/24 01:22:06;;;;;;;;;;;;;;;;;;5088770;28;19936;-72
2022/09/24 01:24:37;;;;;;;;;;;;;;;;;;5091313;28;20524;-74
2022/09/24 01:27:04;;;;;;;;;;;;;;;;;;5075481;28;19940;-74
2022/09/24 01:29:31;;;;;;;;;;;;;;;;;;5081844;28;20679;-74
2022/09/24 01:31:59;;;;;;;;;;;;;;;;;;5079769;28;19936;-74
2022/09/24 01:34:26;;;;;;;;;;;;;;;;;;5085665;28;20398;-74
2022/09/24 01:36:53;;;;;;;;;;;;;;;;;;5088549;28;19928;-74
2022/09/24 01:39:20;;;;;;;;;;;;;;;;;;5084525;28;19928;-74
2022/09/24 01:41:47;;;;;;;;;;;;;;;;;;5083469;28;19934;-74
2022/09/24 01:44:14;;;;;;;;;;;;;;;;;;5066288;28;19928;-74
2022/09/24 01:46:41;;;;;;;;;;;;;;;;;;5065930;28;19930;-74
2022/09/24 01:49:08;;;;;;;;;;;;;;;;;;5067772;28;20002;-74
2022/09/24 01:51:36;;;;;;;;;;;;;;;;;;5077717;28;19973;-74
2022/09/24 01:54:03;;;;;;;;;;;;;;;;;;5072645;28;20478;-74
2022/09/24 01:56:31;;;;;;;;;;;;;;;;;;5073451;28;19927;-74
2022/09/24 01:58:58;;;;;;;;;;;;;;;;;;5071742;28;19932;-74
2022/09/24 02:01:25;;;;;;;;;;;;;;;;;;5095393;28;21311;-73
2022/09/24 02:03:52;;;;;;;;;;;;;;;;;;5094140;28;19924;-74
2022/09/24 02:06:19;;;;;;;;;;;;;;;;;;5073174;28;19932;-74
2022/09/24 02:08:46;;;;;;;;;;;;;;;;;;5088473;28;20449;-74
2022/09/24 02:11:13;;;;;;;;;;;;;;;;;;5090047;28;19935;-74
2022/09/24 02:13:40;;;;;;;;;;;;;;;;;;5092534;28;19977;-74
2022/09/24 02:16:07;;;;;;;;;;;;;;;;;;5070815;28;19936;-75
2022/09/24 02:18:34;;;;;;;;;;;;;;;;;;5065260;28;19977;-74
2022/09/24 02:21:01;;;;;;;;;;;;;;;;;;5068294;28;19935;-74
2022/09/24 02:23:28;;;;;;;;;;;;;;;;;;5069670;28;19928;-75
2022/09/24 02:25:56;;;;;;;;;;;;;;;;;;5074114;28;20410;-75
2022/09/24 02:28:23;;;;;;;;;;;;;;;;;;5079551;28;20455;-75
2022/09/24 02:30:50;;;;;;;;;;;;;;;;;;5075030;28;19936;-76
2022/09/24 02:36:03;;;;;;;;;;;;;;;;;;5069888;28;19931;-77
2022/09/24 02:38:30;;;;;;;;;;;;;;;;;;5072956;28;20292;-77
2022/09/24 02:40:57;;;;;;;;;;;;;;;;;;5073599;28;20002;-78
2022/09/24 02:43:24;;;;;;;;;;;;;;;;;;5085230;28;20566;-78
2022/09/24 02:45:51;;;;;;;;;;;;;;;;;;5084711;28;19924;-79
2022/09/24 02:48:19;;;;;;;;;;;;;;;;;;5082722;28;20508;-80
2022/09/24 02:50:46;;;;;;;;;;;;;;;;;;5084424;28;19982;-80
2022/09/24 02:53:13;;;;;;;;;;;;;;;;;;5080047;28;20027;-81
2022/09/24 02:55:40;;;;;;;;;;;;;;;;;;5085106;28;19967;-81
2022/09/24 02:58:07;;;;;;;;;;;;;;;;;;5086605;28;19999;-79
2022/09/24 03:00:34;;;;;;;;;;;;;;;;;;5075531;28;19978;-79
2022/09/24 03:03:01;;;;;;;;;;;;;;;;;;5081778;28;20493;-81
2022/09/24 03:05:28;;;;;;;;;;;;;;;;;;5086143;28;19934;-81
2022/09/24 03:07:57;;;;;;;;;;;;;;;;;;5078539;28;19930;-82
2022/09/24 03:10:25;;;;;;;;;;;;;;;;;;5087675;28;19951;-81
2022/09/24 03:12:52;;;;;;;;;;;;;;;;;;5086787;28;19994;-83
2022/09/24 03:15:19;;;;;;;;;;;;;;;;;;5083593;28;19932;-82
2022/09/24 03:17:46;;;;;;;;;;;;;;;;;;5075847;28;19928;-82
2022/09/24 03:20:13;;;;;;;;;;;;;;;;;;5082558;28;19928;-82
2022/09/24 03:22:40;;;;;;;;;;;;;;;;;;5084820;28;19923;-81
2022/09/24 03:25:07;;;;;;;;;;;;;;;;;;5079101;28;19925;-82
2022/09/24 03:27:34;;;;;;;;;;;;;;;;;;5078049;28;19931;-82
2022/09/24 03:32:46;;;;;;;;;;;;;;;;;;5078300;28;19924;-82
2022/09/24 03:35:14;;;;;;;;;;;;;;;;;;5085882;28;19936;-81
2022/09/24 03:37:42;;;;;;;;;;;;;;;;;;5087823;28;19938;-83
2022/09/24 03:40:09;;;;;;;;;;;;;;;;;;5083040;28;20137;-84
2022/09/24 03:42:36;;;;;;;;;;;;;;;;;;5083910;28;19928;-80
2022/09/24 03:45:03;;;;;;;;;;;;;;;;;;5086773;28;19932;-80
2022/09/24 03:47:30;;;;;;;;;;;;;;;;;;5087012;28;19927;-82
2022/09/24 03:49:57;;;;;;;;;;;;;;;;;;5088891;28;20590;-82
2022/09/24 03:52:24;;;;;;;;;;;;;;;;;;5090647;28;20306;-81
2022/09/24 03:54:51;;;;;;;;;;;;;;;;;;5084931;28;20425;-81
2022/09/24 03:57:18;;;;;;;;;;;;;;;;;;5087270;28;19931;-82
2022/09/24 03:59:46;;;;;;;;;;;;;;;;;;5077886;28;19924;-82
2022/09/24 04:02:13;;;;;;;;;;;;;;;;;;5088116;28;19932;-81
2022/09/24 04:04:40;;;;;;;;;;;;;;;;;;5076620;28;19977;-83
2022/09/24 04:07:07;;;;;;;;;;;;;;;;;;5080451;28;19931;-81
2022/09/24 04:09:34;;;;;;;;;;;;;;;;;;5079945;28;19978;-81
2022/09/24 04:12:01;;;;;;;;;;;;;;;;;;5076448;28;19951;-81
2022/09/24 04:14:28;;;;;;;;;;;;;;;;;;5090561;28;19928;-81
2022/09/24 04:16:55;;;;;;;;;;;;;;;;;;5080664;28;19928;-81
2022/09/24 04:19:22;;;;;;;;;;;;;;;;;;5077234;28;19932;-80
2022/09/24 04:21:49;;;;;;;;;;;;;;;;;;5086765;28;19935;-81
2022/09/24 04:24:16;;;;;;;;;;;;;;;;;;5087016;28;20446;-81
2022/09/24 04:26:43;;;;;;;;;;;;;;;;;;5096043;28;19935;-80
2022/09/24 04:29:12;;;;;;;;;;;;;;;;;;5089661;28;19928;-81
2022/09/24 04:31:39;;;;;;;;;;;;;;;;;;5092401;28;19951;-82
2022/09/24 04:34:06;;;;;;;;;;;;;;;;;;5091998;28;20039;-80
2022/09/24 04:36:33;;;;;;;;;;;;;;;;;;5093229;28;20294;-80
2022/09/24 04:39:02;;;;;;;;;;;;;;;;;;5084670;28;19932;-81
2022/09/24 04:41:29;;;;;;;;;;;;;;;;;;5090107;28;19942;-80
2022/09/24 04:43:56;;;;;;;;;;;;;;;;;;5091230;28;19955;-81
2022/09/24 04:46:23;;;;;;;;;;;;;;;;;;5093876;28;20584;-80
2022/09/24 04:48:50;;;;;;;;;;;;;;;;;;5085616;28;19958;-81
2022/09/24 04:51:18;;;;;;;;;;;;;;;;;;5088970;28;19935;-81
2022/09/24 04:53:46;;;;;;;;;;;;;;;;;;5084338;28;19928;-80
2022/09/24 04:56:14;;;;;;;;;;;;;;;;;;5092787;28;19967;-79
2022/09/24 04:58:41;;;;;;;;;;;;;;;;;;5090145;28;19932;-77
2022/09/24 05:01:08;;;;;;;;;;;;;;;;;;5097715;28;20636;-79
2022/09/24 05:03:35;;;;;;;;;;;;;;;;;;5092399;28;19943;-79
2022/09/24 05:06:02;;;;;;;;;;;;;;;;;;5087714;28;19935;-78
2022/09/24 05:08:29;;;;;;;;;;;;;;;;;;5087586;28;20382;-79
2022/09/24 05:10:56;;;;;;;;;;;;;;;;;;5084852;28;19928;-80
2022/09/24 05:13:23;;;;;;;;;;;;;;;;;;5088150;28;20302;-80
2022/09/24 05:15:50;;;;;;;;;;;;;;;;;;5086367;28;19939;-80
2022/09/24 05:18:17;;;;;;;;;;;;;;;;;;5084795;28;19932;-80
2022/09/24 05:20:44;;;;;;;;;;;;;;;;;;5084924;28;20326;-81
2022/09/24 05:23:11;;;;;;;;;;;;;;;;;;5084852;28;19931;-80
2022/09/24 05:27:07;;;;;;;;;;;;;;;;;;5088795;28;20407;-81
2022/09/24 05:28:24;;;;;;;;;;;;;;;;;;5080911;28;20633;-80
2022/09/24 05:30:51;;;;;;;;;;;;;;;;;;5083483;28;19920;-81
2022/09/24 05:33:19;;;;;;;;;;;;;;;;;;5084169;28;20295;-81
2022/09/24 05:35:46;;;;;;;;;;;;;;;;;;5082423;28;19927;-82
2022/09/24 05:38:13;;;;;;;;;;;;;;;;;;5075637;28;19932;-80
2022/09/24 05:40:49;;;;;;;;;;;;;;;;;;5086608;28;20445;-81
2022/09/24 05:43:16;;;;;;;;;;;;;;;;;;5089712;28;20513;-81
2022/09/24 05:45:43;;;;;;;;;;;;;;;;;;5087010;28;19928;-79
2022/09/24 05:48:10;;;;;;;;;;;;;;;;;;5084314;28;19938;-81
2022/09/24 05:50:37;;;;;;;;;;;;;;;;;;5086189;28;19989;-78
2022/09/24 05:53:04;;;;;;;;;;;;;;;;;;5082071;28;19932;-79
2022/09/24 05:55:31;;;;;;;;;;;;;;;;;;5084718;28;19928;-80
2022/09/24 05:57:58;;;;;;;;;;;;;;;;;;5085945;28;19939;-81
2022/09/24 06:00:25;;;;;;;;;;;;;;;;;;5080798;28;19927;-78
2022/09/24 06:02:52;;;;;;;;;;;;;;;;;;5086161;28;19934;-80
2022/09/24 06:05:19;;;;;;;;;;;;;;;;;;5077847;28;20324;-80
2022/09/24 06:07:46;;;;;;;;;;;;;;;;;;5082024;28;19928;-80
2022/09/24 06:10:14;;;;;;;;;;;;;;;;;;5086062;28;19935;-79
2022/09/24 06:12:41;;;;;;;;;;;;;;;;;;5085490;28;19939;-79
2022/09/24 06:15:08;;;;;;;;;;;;;;;;;;5084290;28;19928;-81
2022/09/24 06:17:35;;;;;;;;;;;;;;;;;;5081790;28;19931;-80
2022/09/24 06:20:02;;;;;;;;;;;;;;;;;;5078155;28;19935;-81
2022/09/24 06:22:29;;;;;;;;;;;;;;;;;;5086374;28;19951;-79
2022/09/24 06:24:56;;;;;;;;;;;;;;;;;;5079586;28;19939;-81
2022/09/24 06:27:23;;;;;;;;;;;;;;;;;;5081673;28;19928;-81
2022/09/24 06:29:50;;;;;;;;;;;;;;;;;;5085466;28;19939;-80
2022/09/24 06:32:18;;;;;;;;;;;;;;;;;;5081780;28;19928;-80
2022/09/24 06:34:46;;;;;;;;;;;;;;;;;;5084836;28;20019;-80
2022/09/24 06:37:13;;;;;;;;;;;;;;;;;;5078429;28;20344;-79
2022/09/24 06:39:40;;;;;;;;;;;;;;;;;;5083391;28;19932;-81
2022/09/24 06:42:07;;;;;;;;;;;;;;;;;;5084446;28;20723;-81
2022/09/24 06:44:34;;;;;;;;;;;;;;;;;;5086523;28;19987;-80
2022/09/24 06:47:01;;;;;;;;;;;;;;;;;;5088762;28;19936;-81
2022/09/24 06:49:28;;;;;;;;;;;;;;;;;;5092058;28;20018;-80
2022/09/24 06:51:57;;;;;;;;;;;;;;;;;;5084242;28;19971;-80
2022/09/24 06:54:24;;;;;;;;;;;;;;;;;;5093708;28;20008;-79
2022/09/24 06:56:51;;;;;;;;;;;;;;;;;;5084580;28;20409;-80
2022/09/24 06:59:18;;;;;;;;;;;;;;;;;;5092202;28;20015;-82
2022/09/24 07:01:45;;;;;;;;;;;;;;;;;;5083374;28;19924;-79
2022/09/24 07:04:12;;;;;;;;;;;;;;;;;;5079201;28;19929;-80
2022/09/24 07:09:24;;;;;;;;;;;;;;;;;;5083827;28;19932;-79
2022/09/24 07:11:51;;;;;;;;;;;;;;;;;;5083430;28;19980;-80
2022/09/24 07:14:18;;;;;;;;;;;;;;;;;;5089066;28;19931;-79
2022/09/24 07:16:45;;;;;;;;;;;;;;;;;;5079101;28;20475;-77
2022/09/24 07:19:12;;;;;;;;;;;;;;;;;;5085527;28;19986;-79
2022/09/24 07:21:39;;;;;;;;;;;;;;;;;;5091037;28;20275;-79
2022/09/24 07:24:06;;;;;;;;;;;;;;;;;;5089763;28;19932;-78
2022/09/24 07:26:33;;;;;;;;;;;;;;;;;;5082433;28;19928;-79
2022/09/24 07:29:01;;;;;;;;;;;;;;;;;;5079581;28;19975;-79
2022/09/24 07:31:28;;;;;;;;;;;;;;;;;;5074070;28;19935;-79
2022/09/24 07:33:55;;;;;;;;;;;;;;;;;;5078875;28;20407;-78
2022/09/24 07:36:22;;;;;;;;;;;;;;;;;;5085524;28;20541;-78
2022/09/24 07:38:49;;;;;;;;;;;;;;;;;;5084729;28;19931;-79
2022/09/24 07:41:17;;;;;;;;;;;;;;;;;;5088409;28;19928;-77
2022/09/24 07:43:44;;;;;;;;;;;;;;;;;;5078018;28;20695;-79
2022/09/24 07:46:11;;;;;;;;;;;;;;;;;;5078518;28;19932;-73
2022/09/24 07:48:38;;;;;;;;;;;;;;;;;;5081334;28;19928;-79
2022/09/24 07:51:05;;;;;;;;;;;;;;;;;;5084197;28;20017;-77
2022/09/24 07:53:32;;;;;;;;;;;;;;;;;;5082279;28;19993;-78
2022/09/24 07:55:59;;;;;;;;;;;;;;;;;;5079341;28;19950;-78
2022/09/24 07:58:26;;;;;;;;;;;;;;;;;;5083739;28;19934;-78
2022/09/24 08:00:53;;;;;;;;;;;;;;;;;;5079541;28;19928;-78
2022/09/24 08:03:20;;;;;;;;;;;;;;;;;;5083105;28;19954;-78
2022/09/24 08:05:47;;;;;;;;;;;;;;;;;;5085581;28;19936;-79
2022/09/24 08:08:14;;;;;;;;;;;;;;;;;;5079891;28;19947;-79
2022/09/24 08:10:42;;;;;;;;;;;;;;;;;;5082092;28;19939;-78
2022/09/24 08:13:09;;;;;;;;;;;;;;;;;;5083085;28;19932;-76
2022/09/24 08:15:36;;;;;;;;;;;;;;;;;;5081158;28;20019;-79
2022/09/24 08:18:03;;;;;;;;;;;;;;;;;;5081336;28;19982;-79
2022/09/24 08:20:30;;;;;;;;;;;;;;;;;;5085330;28;19958;-78
2022/09/24 08:22:57;;;;;;;;;;;;;;;;;;5082557;28;19939;-78
2022/09/24 08:25:24;;;;;;;;;;;;;;;;;;5083919;28;19932;-79
2022/09/24 08:27:51;;;;;;;;;;;;;;;;;;5081245;28;19932;-77
2022/09/24 08:30:20;;;;;;;;;;;;;;;;;;5080694;28;19928;-78
2022/09/24 08:32:47;;;;;;;;;;;;;;;;;;5079884;28;20374;-80
2022/09/24 08:35:15;;;;;;;;;;;;;;;;;;5081278;28;19928;-78
2022/09/24 08:37:42;;;;;;;;;;;;;;;;;;5080262;28;20011;-79
2022/09/24 08:40:09;;;;;;;;;;;;;;;;;;5078644;28;19932;-80
2022/09/24 08:42:36;;;;;;;;;;;;;;;;;;5082497;28;19932;-79
2022/09/24 08:47:48;;;;;;;;;;;;;;;;;;5077015;28;19920;-80
2022/09/24 08:50:15;;;;;;;;;;;;;;;;;;5079143;28;20001;-78
2022/09/24 08:52:42;;;;;;;;;;;;;;;;;;5082825;28;20417;-80
2022/09/24 08:55:09;;;;;;;;;;;;;;;;;;5086212;28;19931;-79
2022/09/24 08:57:36;;;;;;;;;;;;;;;;;;5087504;28;19928;-81
2022/09/24 09:00:04;;;;;;;;;;;;;;;;;;5084293;28;19932;-79
2022/09/24 09:02:31;;;;;;;;;;;;;;;;;;5083993;28;19932;-78
2022/09/24 09:04:59;;;;;;;;;;;;;;;;;;5083268;28;19936;-80
2022/09/24 09:07:26;;;;;;;;;;;;;;;;;;5085544;28;19928;-79
2022/09/24 09:09:53;;;;;;;;;;;;;;;;;;5085240;28;19935;-79
2022/09/24 09:12:20;;;;;;;;;;;;;;;;;;5080338;28;19924;-82
2022/09/24 09:14:47;;;;;;;;;;;;;;;;;;5091112;28;19931;-81
2022/09/24 09:17:14;;;;;;;;;;;;;;;;;;5082880;28;19940;-80
2022/09/24 09:19:41;;;;;;;;;;;;;;;;;;5083054;28;20684;-81
2022/09/24 09:22:08;;;;;;;;;;;;;;;;;;5084877;28;19955;-82
2022/09/24 09:24:35;;;;;;;;;;;;;;;;;;5085777;28;20298;-81
2022/09/24 09:27:03;;;;;;;;;;;;;;;;;;5087807;28;19936;-78
2022/09/24 09:29:30;;;;;;;;;;;;;;;;;;5088540;28;19924;-80
2022/09/24 09:31:57;;;;;;;;;;;;;;;;;;5087790;28;20426;-79
2022/09/24 09:34:27;;;;;;;;;;;;;;;;;;5090544;28;19924;-80
2022/09/24 09:36:54;;;;;;;;;;;;;;;;;;5086041;28;19981;-81
2022/09/24 09:39:21;;;;;;;;;;;;;;;;;;5080610;28;20461;-80
2022/09/24 09:41:48;;;;;;;;;;;;;;;;;;5089973;28;19928;-77
2022/09/24 09:44:15;;;;;;;;;;;;;;;;;;5074078;28;19974;-81
2022/09/24 09:46:42;;;;;;;;;;;;;;;;;;5073488;28;19928;-80
2022/09/24 09:49:09;;;;;;;;;;;;;;;;;;5076086;28;19924;-79
2022/09/24 09:51:37;;;;;;;;;;;;;;;;;;5073833;28;20028;-78
2022/09/24 09:54:04;;;;;;;;;;;;;;;;;;5075833;28;19927;-78
2022/09/24 09:56:31;;;;;;;;;;;;;;;;;;5071197;28;19935;-79
2022/09/24 09:58:58;;;;;;;;;;;;;;;;;;5076936;28;19931;-81
2022/09/24 10:01:25;;;;;;;;;;;;;;;;;;5074014;28;19931;-80
2022/09/24 10:03:55;;;;;;;;;;;;;;;;;;5065926;28;19932;-79
2022/09/24 10:06:22;;;;;;;;;;;;;;;;;;5070992;28;19932;-79
2022/09/24 10:08:49;;;;;;;;;;;;;;;;;;5070610;28;19928;-81
2022/09/24 10:11:16;;;;;;;;;;;;;;;;;;5072323;28;19924;-81
2022/09/24 10:13:44;;;;;;;;;;;;;;;;;;5071584;28;20727;-80
2022/09/24 10:16:11;;;;;;;;;;;;;;;;;;5069960;28;19927;-77
2022/09/24 10:18:38;;;;;;;;;;;;;;;;;;5064991;28;19932;-75
2022/09/24 10:21:07;;;;;;;;;;;;;;;;;;5089448;28;19959;-78
2022/09/24 10:23:34;;;;;;;;;;;;;;;;;;5075320;28;19931;-80
2022/09/24 10:26:01;;;;;;;;;;;;;;;;;;5071784;28;19932;-80
2022/09/24 10:31:13;;;;;;;;;;;;;;;;;;5069335;28;19924;-78
2022/09/24 10:33:40;;;;;;;;;;;;;;;;;;5071310;28;19924;-78
2022/09/24 10:36:07;;;;;;;;;;;;;;;;;;5068776;28;19935;-81
2022/09/24 10:38:34;;;;;;;;;;;;;;;;;;5071669;28;19924;-79
2022/09/24 10:41:02;;;;;;;;;;;;;;;;;;5071713;28;19928;-81
2022/09/24 10:43:30;;;;;;;;;;;;;;;;;;5084396;28;19928;-78
2022/09/24 10:45:57;;;;;;;;;;;;;;;;;;5080894;28;20026;-81
2022/09/24 10:48:24;;;;;;;;;;;;;;;;;;5082326;28;19928;-80
2022/09/24 10:50:53;;;;;;;;;;;;;;;;;;5076146;28;19928;-80
2022/09/24 10:53:20;;;;;;;;;;;;;;;;;;5078662;28;19924;-81
2022/09/24 10:55:47;;;;;;;;;;;;;;;;;;5089324;28;19935;-79
2022/09/24 10:58:14;;;;;;;;;;;;;;;;;;5082535;28;19924;-80
2022/09/24 11:00:41;;;;;;;;;;;;;;;;;;5082569;28;20466;-83
2022/09/24 11:03:08;;;;;;;;;;;;;;;;;;5081070;28;19943;-80
2022/09/24 11:05:35;;;;;;;;;;;;;;;;;;5089746;28;19923;-82
2022/09/24 11:08:02;;;;;;;;;;;;;;;;;;5080315;28;19936;-78
2022/09/24 11:10:29;;;;;;;;;;;;;;;;;;5083920;28;19928;-83
2022/09/24 11:12:56;;;;;;;;;;;;;;;;;;5081845;28;19929;-80
2022/09/24 11:15:23;;;;;;;;;;;;;;;;;;5072570;28;19937;-82
2022/09/24 11:17:50;;;;;;;;;;;;;;;;;;5083410;28;19939;-81
2022/09/24 11:20:17;;;;;;;;;;;;;;;;;;5088417;28;19942;-77
2022/09/24 11:22:44;;;;;;;;;;;;;;;;;;5078768;28;19928;-82
2022/09/24 11:25:11;;;;;;;;;;;;;;;;;;5085270;28;19928;-81
2022/09/24 11:27:38;;;;;;;;;;;;;;;;;;5079767;28;19925;-82
2022/09/24 11:30:05;;;;;;;;;;;;;;;;;;5088984;28;19932;-82
2022/09/24 11:32:32;;;;;;;;;;;;;;;;;;5086091;28;19928;-80
2022/09/24 11:34:59;;;;;;;;;;;;;;;;;;5080374;28;20328;-80
2022/09/24 11:37:26;;;;;;;;;;;;;;;;;;5083552;28;19924;-80
2022/09/24 11:39:53;;;;;;;;;;;;;;;;;;5089893;28;19946;-83
2022/09/24 11:42:20;;;;;;;;;;;;;;;;;;5083171;28;19928;-81
2022/09/24 11:44:49;;;;;;;;;;;;;;;;;;5083238;28;20367;-79
2022/09/24 11:47:16;;;;;;;;;;;;;;;;;;5088016;28;19924;-80
2022/09/24 11:49:43;;;;;;;;;;;;;;;;;;5083638;28;19935;-81
2022/09/24 11:52:10;;;;;;;;;;;;;;;;;;5080885;28;19931;-80
2022/09/24 11:54:37;;;;;;;;;;;;;;;;;;5084532;28;19924;-82
2022/09/24 11:57:04;;;;;;;;;;;;;;;;;;5081012;28;19928;-81
2022/09/24 11:59:32;;;;;;;;;;;;;;;;;;5087347;28;20035;-81
2022/09/24 12:01:59;;;;;;;;;;;;;;;;;;5084401;28;19924;-82
2022/09/24 12:04:26;;;;;;;;;;;;;;;;;;5081969;28;19973;-75
2022/09/24 12:06:53;;;;;;;;;;;;;;;;;;5083833;28;20476;-81
2022/09/24 12:09:20;;;;;;;;;;;;;;;;;;5085378;28;19924;-79
2022/09/24 12:11:48;;;;;;;;;;;;;;;;;;5084763;28;20405;-82
2022/09/24 12:14:15;;;;;;;;;;;;;;;;;;5079557;28;19925;-77
2022/09/24 12:16:43;;;;;;;;;;;;;;;;;;5086789;28;19939;-82
2022/09/24 12:19:10;;;;;;;;;;;;;;;;;;5084897;28;19928;-81
2022/09/24 12:21:39;;;;;;;;;;;;;;;;;;5077308;28;20441;-80
2022/09/24 12:24:06;;;;;;;;;;;;;;;;;;5076882;28;20979;-80
2022/09/24 12:26:33;;;;;;;;;;;;;;;;;;5080264;28;20462;-78
2022/09/24 12:34:30;;;;;;;;;;;;;;;;;;5090881;28;19920;-84
2022/09/24 12:36:57;;;;;;;;;;;;;;;;;;5088609;28;19928;-80
2022/09/24 12:39:24;;;;;;;;;;;;;;;;;;5076981;28;19928;-80
2022/09/24 12:41:55;;;;;;;;;;;;;;;;;;5081424;28;19924;-82
2022/09/24 12:44:22;;;;;;;;;;;;;;;;;;5072889;28;19935;-82
2022/09/24 12:46:49;;;;;;;;;;;;;;;;;;5071948;28;20015;-80
2022/09/24 12:49:16;;;;;;;;;;;;;;;;;;5077982;28;19935;-80
2022/09/24 12:51:43;;;;;;;;;;;;;;;;;;5071350;28;19928;-78
2022/09/24 12:54:10;;;;;;;;;;;;;;;;;;5070640;28;19958;-82
2022/09/24 12:56:37;;;;;;;;;;;;;;;;;;5071753;28;19931;-81
2022/09/24 12:59:04;;;;;;;;;;;;;;;;;;5072108;28;20010;-81
2022/09/24 13:01:32;;;;;;;;;;;;;;;;;;5074271;28;19928;-80
2022/09/24 13:04:00;;;;;;;;;;;;;;;;;;5072299;28;20329;-81
2022/09/24 13:06:27;;;;;;;;;;;;;;;;;;5073494;28;19930;-81
2022/09/24 13:08:54;;;;;;;;;;;;;;;;;;5070722;28;19928;-80
2022/09/24 13:11:21;;;;;;;;;;;;;;;;;;5071049;28;19977;-82
2022/09/24 13:13:48;;;;;;;;;;;;;;;;;;5080811;28;19939;-82
2022/09/24 13:16:15;;;;;;;;;;;;;;;;;;5073079;28;19942;-83
2022/09/24 13:18:42;;;;;;;;;;;;;;;;;;5075415;28;19932;-80
2022/09/24 13:21:09;;;;;;;;;;;;;;;;;;5078674;28;19935;-79
2022/09/24 13:23:37;;;;;;;;;;;;;;;;;;5073533;28;19924;-81
2022/09/24 13:26:04;;;;;;;;;;;;;;;;;;5075515;28;20314;-80
2022/09/24 13:28:31;;;;;;;;;;;;;;;;;;5076535;28;19935;-84
2022/09/24 13:30:58;;;;;;;;;;;;;;;;;;5072060;28;20362;-83
2022/09/24 13:33:26;;;;;;;;;;;;;;;;;;5073398;28;20009;-81
2022/09/24 13:35:53;;;;;;;;;;;;;;;;;;5076003;28;19933;-83
2022/09/24 13:38:20;;;;;;;;;;;;;;;;;;5071745;28;20001;-82
2022/09/24 13:40:47;;;;;;;;;;;;;;;;;;5072784;28;19924;-82
2022/09/24 13:43:14;;;;;;;;;;;;;;;;;;5090286;28;19934;-80
2022/09/24 13:45:43;;;;;;;;;;;;;;;;;;5083222;28;19924;-81
2022/09/24 13:48:10;;;;;;;;;;;;;;;;;;5078230;28;20395;-81
2022/09/24 13:50:37;;;;;;;;;;;;;;;;;;5083904;28;19931;-83
2022/09/24 13:53:06;;;;;;;;;;;;;;;;;;5088448;28;19928;-84
2022/09/24 13:55:33;;;;;;;;;;;;;;;;;;5087393;28;19924;-85
2022/09/24 13:58:00;;;;;;;;;;;;;;;;;;5087103;28;20019;-77
2022/09/24 14:00:27;;;;;;;;;;;;;;;;;;5082411;28;19924;-85
2022/09/24 14:02:54;;;;;;;;;;;;;;;;;;5084785;28;20375;-83
2022/09/24 14:05:21;;;;;;;;;;;;;;;;;;5081412;28;20007;-81
2022/09/24 14:07:48;;;;;;;;;;;;;;;;;;5090835;28;20034;-84
2022/09/24 14:10:16;;;;;;;;;;;;;;;;;;5085269;28;19947;-82
2022/09/24 14:12:43;;;;;;;;;;;;;;;;;;5083069;28;19924;-81
2022/09/24 14:15:10;;;;;;;;;;;;;;;;;;5088844;28;19935;-83
2022/09/24 14:17:37;;;;;;;;;;;;;;;;;;5080749;28;19932;-82
2022/09/24 14:20:04;;;;;;;;;;;;;;;;;;5082610;28;20470;-79
2022/09/24 14:22:31;;;;;;;;;;;;;;;;;;5075649;28;19932;-85
2022/09/24 14:24:58;;;;;;;;;;;;;;;;;;5082054;28;19935;-80
2022/09/24 14:27:25;;;;;;;;;;;;;;;;;;5085211;28;19928;-83
2022/09/24 14:29:52;;;;;;;;;;;;;;;;;;5086189;28;19928;-82
2022/09/24 14:32:19;;;;;;;;;;;;;;;;;;5079922;28;19928;-83
2022/09/24 14:34:46;;;;;;;;;;;;;;;;;;5083372;28;19925;-83
2022/09/24 14:37:13;;;;;;;;;;;;;;;;;;5078571;28;20387;-83
2022/09/24 14:39:40;;;;;;;;;;;;;;;;;;5081740;28;19929;-82
2022/09/24 14:42:07;;;;;;;;;;;;;;;;;;5087383;28;19924;-81
2022/09/24 14:44:34;;;;;;;;;;;;;;;;;;5083878;28;19939;-80
2022/09/24 14:47:01;;;;;;;;;;;;;;;;;;5087357;28;19932;-82
2022/09/24 14:49:28;;;;;;;;;;;;;;;;;;5086433;28;20302;-83
2022/09/24 14:51:55;;;;;;;;;;;;;;;;;;5081234;28;20017;-82
2022/09/24 14:54:22;;;;;;;;;;;;;;;;;;5083126;28;20508;-84
2022/09/24 14:56:49;;;;;;;;;;;;;;;;;;5085697;28;20306;-84
2022/09/24 14:59:17;;;;;;;;;;;;;;;;;;5089774;28;20505;-84
2022/09/24 15:01:44;;;;;;;;;;;;;;;;;;5087215;28;19967;-83
2022/09/24 15:04:11;;;;;;;;;;;;;;;;;;5079563;28;19936;-74
2022/09/24 15:06:39;;;;;;;;;;;;;;;;;;5087221;28;19924;-82
2022/09/24 15:09:06;;;;;;;;;;;;;;;;;;5095025;28;19963;-84
2022/09/24 15:11:34;;;;;;;;;;;;;;;;;;5088676;28;19924;-81
2022/09/24 15:14:01;;;;;;;;;;;;;;;;;;5073849;28;19974;-82
2022/09/24 15:16:28;;;;;;;;;;;;;;;;;;5084890;28;19928;-84
2022/09/24 15:18:55;;;;;;;;;;;;;;;;;;5086584;28;19927;-80
2022/09/24 15:21:22;;;;;;;;;;;;;;;;;;5088839;28;19923;-84
2022/09/24 15:23:49;;;;;;;;;;;;;;;;;;5075339;28;20358;-85
2022/09/24 15:26:16;;;;;;;;;;;;;;;;;;5081020;28;19928;-83
2022/09/24 15:28:43;;;;;;;;;;;;;;;;;;5071465;28;19925;-81
2022/09/24 15:31:10;;;;;;;;;;;;;;;;;;5087308;28;19935;-79
2022/09/24 15:33:37;;;;;;;;;;;;;;;;;;5077770;28;19924;-84
2022/09/24 15:36:04;;;;;;;;;;;;;;;;;;5084037;28;19927;-80
2022/09/24 15:38:31;;;;;;;;;;;;;;;;;;5091853;28;19934;-81
2022/09/24 15:40:58;;;;;;;;;;;;;;;;;;5085239;28;20022;-81
2022/09/24 15:43:25;;;;;;;;;;;;;;;;;;5084321;28;19935;-79
2022/09/24 15:45:52;;;;;;;;;;;;;;;;;;5081393;28;19924;-81
2022/09/24 15:48:19;;;;;;;;;;;;;;;;;;5077622;28;19934;-83
2022/09/24 15:50:46;;;;;;;;;;;;;;;;;;5090386;28;19928;-83
2022/09/24 15:53:13;;;;;;;;;;;;;;;;;;5076431;28;19928;-81
2022/09/24 15:55:40;;;;;;;;;;;;;;;;;;5083360;28;20301;-82
2022/09/24 15:58:07;;;;;;;;;;;;;;;;;;5081378;28;19928;-84
2022/09/24 16:00:34;;;;;;;;;;;;;;;;;;5078871;28;20667;-81
2022/09/24 16:03:01;;;;;;;;;;;;;;;;;;5081162;28;19941;-82
2022/09/24 16:05:28;;;;;;;;;;;;;;;;;;5083481;28;19935;-80
2022/09/24 16:07:55;;;;;;;;;;;;;;;;;;5076046;28;20348;-84
2022/09/24 16:10:22;;;;;;;;;;;;;;;;;;5081151;28;19936;-83
2022/09/24 16:12:49;;;;;;;;;;;;;;;;;;5090859;28;20516;-78
2022/09/24 16:15:16;;;;;;;;;;;;;;;;;;5080745;28;19928;-81
2022/09/24 16:17:43;;;;;;;;;;;;;;;;;;5071182;28;19981;-81
2022/09/24 16:20:10;;;;;;;;;;;;;;;;;;5079139;28;19947;-84
2022/09/24 16:22:37;;;;;;;;;;;;;;;;;;5081255;28;19930;-83
2022/09/24 16:25:04;;;;;;;;;;;;;;;;;;5072270;28;19955;-79
2022/09/24 16:27:34;;;;;;;;;;;;;;;;;;5080411;28;19928;-79
2022/09/24 16:30:01;;;;;;;;;;;;;;;;;;5077165;28;19986;-79
2022/09/24 16:32:28;;;;;;;;;;;;;;;;;;5072624;28;19928;-81
2022/09/24 16:34:55;;;;;;;;;;;;;;;;;;5078259;28;19932;-80
2022/09/24 16:37:22;;;;;;;;;;;;;;;;;;5079365;28;19932;-81
2022/09/24 16:39:49;;;;;;;;;;;;;;;;;;5076115;28;19929;-84
2022/09/24 16:42:16;;;;;;;;;;;;;;;;;;5071600;28;19928;-79
2022/09/24 16:44:43;;;;;;;;;;;;;;;;;;5075641;28;20470;-82
2022/09/24 16:47:14;;;;;;;;;;;;;;;;;;5071302;28;19924;-81
2022/09/24 16:49:42;;;;;;;;;;;;;;;;;;5080852;28;19988;-77
2022/09/24 16:52:09;;;;;;;;;;;;;;;;;;5075091;28;20284;-78
2022/09/24 16:54:36;;;;;;;;;;;;;;;;;;5075859;28;20535;-80
2022/09/24 16:57:04;;;;;;;;;;;;;;;;;;5082533;28;19932;-73
2022/09/24 16:59:31;;;;;;;;;;;;;;;;;;5084209;28;19935;-83
2022/09/24 17:01:58;;;;;;;;;;;;;;;;;;5081886;28;19924;-80
2022/09/24 17:04:25;;;;;;;;;;;;;;;;;;5081764;28;20280;-82
2022/09/24 17:06:52;;;;;;;;;;;;;;;;;;5080746;28;19935;-84